sensor_id;sensor_type;location;lat;lon;timestamp;P1;durP1;ratioP1;P2;durP2;ratioP2
29314;SDS011;16320;53.954;9.506;2022-08-25T00:01:46;10.52;;;4.68;;
29314;SDS011;16320;53.954;9.506;2022-08-25T00:04:58;8.35;;;5.13;;
29314;SDS011;16320;53.954;9.506;2022-08-25T00:08:03;8.68;;;6.00;;
29314;SDS011;16320;53.954;9.506;2022-08-25T00:11:12;7.32;;;5.20;;
29314;SDS011;16320;53.954;9.506;2022-08-25T00:14:22;8.25;;;4.80;;
29314;SDS011;16320;53.954;9.506;2022-08-25T00:17:36;9.80;;;5.20;;
29314;SDS011;16320;53.954;9.506;2022-08-25T00:20:40;7.38;;;5.93;;
29314;SDS011;16320;53.954;9.506;2022-08-25T00:23:51;8.10;;;5.65;;
29314;SDS011;16320;53.954;9.506;2022-08-25T00:26:57;10.55;;;5.70;;
29314;SDS011;16320;53.954;9.506;2022-08-25T00:30:03;11.02;;;5.68;;
29314;SDS011;16320;53.954;9.506;2022-08-25T00:33:09;8.55;;;5.15;;
29314;SDS011;16320;53.954;9.506;2022-08-25T00:36:14;10.95;;;5.82;;
29314;SDS011;16320;53.954;9.506;2022-08-25T00:39:20;8.77;;;5.47;;
29314;SDS011;16320;53.954;9.506;2022-08-25T00:42:26;7.85;;;5.18;;
29314;SDS011;16320;53.954;9.506;2022-08-25T00:45:31;10.35;;;5.60;;
29314;SDS011;16320;53.954;9.506;2022-08-25T00:48:38;6.72;;;5.65;;
29314;SDS011;16320;53.954;9.506;2022-08-25T00:51:49;9.30;;;5.15;;
29314;SDS011;16320;53.954;9.506;2022-08-25T00:58:36;8.10;;;5.87;;
29314;SDS011;16320;53.954;9.506;2022-08-25T01:01:42;7.97;;;4.97;;
29314;SDS011;16320;53.954;9.506;2022-08-25T01:04:47;10.35;;;6.20;;
29314;SDS011;16320;53.954;9.506;2022-08-25T01:07:52;9.02;;;6.00;;
29314;SDS011;16320;53.954;9.506;2022-08-25T01:11:02;10.75;;;6.15;;
29314;SDS011;16320;53.954;9.506;2022-08-25T01:14:12;10.32;;;5.60;;
29314;SDS011;16320;53.954;9.506;2022-08-25T01:17:21;9.15;;;6.45;;
29314;SDS011;16320;53.954;9.506;2022-08-25T01:20:27;7.82;;;5.80;;
29314;SDS011;16320;53.954;9.506;2022-08-25T01:23:34;9.57;;;6.05;;
29314;SDS011;16320;53.954;9.506;2022-08-25T01:26:38;12.05;;;6.47;;
29314;SDS011;16320;53.954;9.506;2022-08-25T01:29:43;11.10;;;6.45;;
29314;SDS011;16320;53.954;9.506;2022-08-25T01:32:47;12.38;;;6.20;;
29314;SDS011;16320;53.954;9.506;2022-08-25T01:35:52;12.32;;;6.20;;
29314;SDS011;16320;53.954;9.506;2022-08-25T01:38:57;8.88;;;6.55;;
29314;SDS011;16320;53.954;9.506;2022-08-25T01:42:08;8.50;;;5.70;;
29314;SDS011;16320;53.954;9.506;2022-08-25T01:45:15;10.32;;;6.55;;
29314;SDS011;16320;53.954;9.506;2022-08-25T01:48:20;8.65;;;6.10;;
29314;SDS011;16320;53.954;9.506;2022-08-25T01:51:24;10.00;;;6.00;;
29314;SDS011;16320;53.954;9.506;2022-08-25T01:54:36;11.57;;;6.30;;
29314;SDS011;16320;53.954;9.506;2022-08-25T01:57:41;12.90;;;6.88;;
29314;SDS011;16320;53.954;9.506;2022-08-25T02:00:46;8.48;;;6.78;;
29314;SDS011;16320;53.954;9.506;2022-08-25T02:03:53;7.22;;;6.10;;
29314;SDS011;16320;53.954;9.506;2022-08-25T02:07:02;12.95;;;6.15;;
29314;SDS011;16320;53.954;9.506;2022-08-25T02:10:10;8.27;;;5.95;;
29314;SDS011;16320;53.954;9.506;2022-08-25T02:13:16;11.80;;;6.53;;
29314;SDS011;16320;53.954;9.506;2022-08-25T02:16:31;9.82;;;5.15;;
29314;SDS011;16320;53.954;9.506;2022-08-25T02:19:39;11.30;;;6.10;;
29314;SDS011;16320;53.954;9.506;2022-08-25T02:22:43;7.25;;;6.10;;
29314;SDS011;16320;53.954;9.506;2022-08-25T02:25:59;11.38;;;7.55;;
29314;SDS011;16320;53.954;9.506;2022-08-25T02:29:04;11.82;;;7.30;;
29314;SDS011;16320;53.954;9.506;2022-08-25T02:32:10;9.68;;;6.05;;
29314;SDS011;16320;53.954;9.506;2022-08-25T02:35:15;9.73;;;6.00;;
29314;SDS011;16320;53.954;9.506;2022-08-25T02:38:19;8.90;;;6.30;;
29314;SDS011;16320;53.954;9.506;2022-08-25T02:41:24;8.35;;;5.95;;
29314;SDS011;16320;53.954;9.506;2022-08-25T02:44:33;7.70;;;6.22;;
29314;SDS011;16320;53.954;9.506;2022-08-25T02:47:38;9.00;;;7.00;;
29314;SDS011;16320;53.954;9.506;2022-08-25T02:50:48;7.90;;;6.10;;
29314;SDS011;16320;53.954;9.506;2022-08-25T02:53:55;10.40;;;6.15;;
29314;SDS011;16320;53.954;9.506;2022-08-25T02:57:03;9.13;;;6.60;;
29314;SDS011;16320;53.954;9.506;2022-08-25T03:00:08;10.27;;;6.57;;
29314;SDS011;16320;53.954;9.506;2022-08-25T03:03:16;9.48;;;6.68;;
29314;SDS011;16320;53.954;9.506;2022-08-25T03:06:22;7.72;;;6.18;;
29314;SDS011;16320;53.954;9.506;2022-08-25T03:09:27;8.82;;;6.43;;
29314;SDS011;16320;53.954;9.506;2022-08-25T03:12:36;10.80;;;6.72;;
29314;SDS011;16320;53.954;9.506;2022-08-25T03:15:42;12.70;;;6.65;;
29314;SDS011;16320;53.954;9.506;2022-08-25T03:18:47;8.43;;;6.20;;
29314;SDS011;16320;53.954;9.506;2022-08-25T03:21:52;10.70;;;5.88;;
29314;SDS011;16320;53.954;9.506;2022-08-25T03:24:58;9.20;;;5.97;;
29314;SDS011;16320;53.954;9.506;2022-08-25T03:28:27;8.65;;;6.80;;
29314;SDS011;16320;53.954;9.506;2022-08-25T03:31:35;9.35;;;6.75;;
29314;SDS011;16320;53.954;9.506;2022-08-25T03:34:40;9.48;;;6.30;;
29314;SDS011;16320;53.954;9.506;2022-08-25T03:37:45;10.40;;;6.70;;
29314;SDS011;16320;53.954;9.506;2022-08-25T03:40:50;12.52;;;7.00;;
29314;SDS011;16320;53.954;9.506;2022-08-25T03:43:55;11.57;;;7.07;;
29314;SDS011;16320;53.954;9.506;2022-08-25T03:47:01;12.35;;;7.22;;
29314;SDS011;16320;53.954;9.506;2022-08-25T03:50:06;13.55;;;7.68;;
29314;SDS011;16320;53.954;9.506;2022-08-25T03:53:13;9.98;;;7.90;;
29314;SDS011;16320;53.954;9.506;2022-08-25T03:56:17;10.77;;;7.43;;
29314;SDS011;16320;53.954;9.506;2022-08-25T03:59:23;10.07;;;6.22;;
29314;SDS011;16320;53.954;9.506;2022-08-25T04:02:28;11.27;;;6.55;;
29314;SDS011;16320;53.954;9.506;2022-08-25T04:05:36;8.88;;;6.80;;
29314;SDS011;16320;53.954;9.506;2022-08-25T04:08:41;11.73;;;6.53;;
29314;SDS011;16320;53.954;9.506;2022-08-25T04:11:45;12.80;;;6.90;;
29314;SDS011;16320;53.954;9.506;2022-08-25T04:14:55;10.02;;;6.82;;
29314;SDS011;16320;53.954;9.506;2022-08-25T04:18:00;10.35;;;6.78;;
29314;SDS011;16320;53.954;9.506;2022-08-25T04:21:06;9.98;;;7.03;;
29314;SDS011;16320;53.954;9.506;2022-08-25T04:24:12;10.02;;;6.78;;
29314;SDS011;16320;53.954;9.506;2022-08-25T04:27:17;11.32;;;6.55;;
29314;SDS011;16320;53.954;9.506;2022-08-25T04:30:21;12.45;;;7.25;;
29314;SDS011;16320;53.954;9.506;2022-08-25T04:33:26;12.70;;;7.90;;
29314;SDS011;16320;53.954;9.506;2022-08-25T04:36:32;14.10;;;7.80;;
29314;SDS011;16320;53.954;9.506;2022-08-25T04:39:37;12.65;;;8.82;;
29314;SDS011;16320;53.954;9.506;2022-08-25T04:42:41;16.60;;;8.48;;
29314;SDS011;16320;53.954;9.506;2022-08-25T04:45:50;12.23;;;8.88;;
29314;SDS011;16320;53.954;9.506;2022-08-25T04:48:55;17.00;;;8.45;;
29314;SDS011;16320;53.954;9.506;2022-08-25T04:52:01;13.23;;;8.73;;
29314;SDS011;16320;53.954;9.506;2022-08-25T04:55:06;15.75;;;9.52;;
29314;SDS011;16320;53.954;9.506;2022-08-25T04:58:11;11.60;;;8.27;;
29314;SDS011;16320;53.954;9.506;2022-08-25T05:01:20;11.48;;;8.40;;
29314;SDS011;16320;53.954;9.506;2022-08-25T05:04:28;12.95;;;9.43;;
29314;SDS011;16320;53.954;9.506;2022-08-25T05:07:33;11.30;;;9.27;;
29314;SDS011;16320;53.954;9.506;2022-08-25T05:10:38;11.27;;;8.95;;
29314;SDS011;16320;53.954;9.506;2022-08-25T05:13:45;14.93;;;9.55;;
29314;SDS011;16320;53.954;9.506;2022-08-25T05:16:54;13.68;;;9.95;;
29314;SDS011;16320;53.954;9.506;2022-08-25T05:20:00;15.27;;;10.25;;
29314;SDS011;16320;53.954;9.506;2022-08-25T05:23:05;13.60;;;10.00;;
29314;SDS011;16320;53.954;9.506;2022-08-25T05:26:12;16.30;;;10.65;;
29314;SDS011;16320;53.954;9.506;2022-08-25T05:29:23;17.50;;;11.30;;
29314;SDS011;16320;53.954;9.506;2022-08-25T05:32:28;15.35;;;10.50;;
29314;SDS011;16320;53.954;9.506;2022-08-25T05:35:33;12.50;;;10.13;;
29314;SDS011;16320;53.954;9.506;2022-08-25T05:38:38;15.73;;;10.30;;
29314;SDS011;16320;53.954;9.506;2022-08-25T05:41:44;17.27;;;10.75;;
29314;SDS011;16320;53.954;9.506;2022-08-25T05:44:48;17.00;;;11.25;;
29314;SDS011;16320;53.954;9.506;2022-08-25T05:47:53;14.95;;;11.02;;
29314;SDS011;16320;53.954;9.506;2022-08-25T05:50:58;20.17;;;10.95;;
29314;SDS011;16320;53.954;9.506;2022-08-25T05:54:05;15.65;;;10.55;;
29314;SDS011;16320;53.954;9.506;2022-08-25T05:57:09;15.90;;;10.07;;
29314;SDS011;16320;53.954;9.506;2022-08-25T06:00:14;12.52;;;10.00;;
29314;SDS011;16320;53.954;9.506;2022-08-25T06:03:20;15.23;;;9.45;;
29314;SDS011;16320;53.954;9.506;2022-08-25T06:06:24;15.13;;;9.82;;
29314;SDS011;16320;53.954;9.506;2022-08-25T06:09:29;12.63;;;10.25;;
29314;SDS011;16320;53.954;9.506;2022-08-25T06:12:33;16.13;;;10.43;;
29314;SDS011;16320;53.954;9.506;2022-08-25T06:15:38;15.50;;;9.95;;
29314;SDS011;16320;53.954;9.506;2022-08-25T06:18:43;14.07;;;8.07;;
29314;SDS011;16320;53.954;9.506;2022-08-25T06:21:48;14.52;;;9.45;;
29314;SDS011;16320;53.954;9.506;2022-08-25T06:24:57;14.85;;;8.38;;
29314;SDS011;16320;53.954;9.506;2022-08-25T06:28:02;15.00;;;9.27;;
29314;SDS011;16320;53.954;9.506;2022-08-25T06:31:06;16.00;;;9.35;;
29314;SDS011;16320;53.954;9.506;2022-08-25T06:34:12;16.52;;;8.93;;
29314;SDS011;16320;53.954;9.506;2022-08-25T06:37:16;14.23;;;8.25;;
29314;SDS011;16320;53.954;9.506;2022-08-25T06:40:26;11.65;;;8.13;;
29314;SDS011;16320;53.954;9.506;2022-08-25T06:43:31;11.68;;;8.20;;
29314;SDS011;16320;53.954;9.506;2022-08-25T06:46:36;12.93;;;7.97;;
29314;SDS011;16320;53.954;9.506;2022-08-25T06:49:41;10.43;;;7.45;;
29314;SDS011;16320;53.954;9.506;2022-08-25T06:52:47;13.05;;;8.07;;
29314;SDS011;16320;53.954;9.506;2022-08-25T06:55:55;14.15;;;8.57;;
29314;SDS011;16320;53.954;9.506;2022-08-25T07:02:12;11.90;;;8.38;;
29314;SDS011;16320;53.954;9.506;2022-08-25T07:05:24;12.25;;;7.50;;
29314;SDS011;16320;53.954;9.506;2022-08-25T07:08:46;13.85;;;7.40;;
29314;SDS011;16320;53.954;9.506;2022-08-25T07:11:50;13.90;;;8.05;;
29314;SDS011;16320;53.954;9.506;2022-08-25T07:14:55;11.85;;;7.85;;
29314;SDS011;16320;53.954;9.506;2022-08-25T07:21:24;11.82;;;6.88;;
29314;SDS011;16320;53.954;9.506;2022-08-25T07:24:36;9.27;;;6.88;;
29314;SDS011;16320;53.954;9.506;2022-08-25T07:27:40;12.95;;;8.07;;
29314;SDS011;16320;53.954;9.506;2022-08-25T07:30:45;17.20;;;8.18;;
29314;SDS011;16320;53.954;9.506;2022-08-25T07:33:54;12.80;;;7.30;;
29314;SDS011;16320;53.954;9.506;2022-08-25T07:37:20;11.90;;;7.43;;
29314;SDS011;16320;53.954;9.506;2022-08-25T07:40:46;11.15;;;5.97;;
29314;SDS011;16320;53.954;9.506;2022-08-25T07:43:59;12.88;;;7.85;;
29314;SDS011;16320;53.954;9.506;2022-08-25T07:47:03;12.95;;;7.68;;
29314;SDS011;16320;53.954;9.506;2022-08-25T07:50:09;10.63;;;6.97;;
29314;SDS011;16320;53.954;9.506;2022-08-25T07:53:17;12.68;;;8.25;;
29314;SDS011;16320;53.954;9.506;2022-08-25T07:56:22;13.32;;;9.50;;
29314;SDS011;16320;53.954;9.506;2022-08-25T07:59:26;12.23;;;9.77;;
29314;SDS011;16320;53.954;9.506;2022-08-25T08:02:31;16.33;;;10.20;;
29314;SDS011;16320;53.954;9.506;2022-08-25T08:05:39;11.43;;;10.32;;
29314;SDS011;16320;53.954;9.506;2022-08-25T08:08:44;15.13;;;10.45;;
29314;SDS011;16320;53.954;9.506;2022-08-25T08:11:53;20.48;;;13.10;;
29314;SDS011;16320;53.954;9.506;2022-08-25T08:14:58;16.88;;;12.60;;
29314;SDS011;16320;53.954;9.506;2022-08-25T08:18:03;16.05;;;13.50;;
29314;SDS011;16320;53.954;9.506;2022-08-25T08:21:15;20.63;;;15.10;;
29314;SDS011;16320;53.954;9.506;2022-08-25T08:24:28;17.77;;;13.75;;
29314;SDS011;16320;53.954;9.506;2022-08-25T08:27:54;23.42;;;14.68;;
29314;SDS011;16320;53.954;9.506;2022-08-25T08:30:59;14.60;;;12.85;;
29314;SDS011;16320;53.954;9.506;2022-08-25T08:34:03;16.35;;;11.70;;
29314;SDS011;16320;53.954;9.506;2022-08-25T08:37:09;18.73;;;13.73;;
29314;SDS011;16320;53.954;9.506;2022-08-25T08:40:14;20.27;;;14.27;;
29314;SDS011;16320;53.954;9.506;2022-08-25T08:43:22;18.95;;;14.05;;
29314;SDS011;16320;53.954;9.506;2022-08-25T08:46:33;19.50;;;14.35;;
29314;SDS011;16320;53.954;9.506;2022-08-25T08:49:56;14.00;;;11.07;;
29314;SDS011;16320;53.954;9.506;2022-08-25T08:54:09;15.00;;;12.35;;
29314;SDS011;16320;53.954;9.506;2022-08-25T08:57:01;14.95;;;11.18;;
29314;SDS011;16320;53.954;9.506;2022-08-25T09:00:20;12.43;;;9.60;;
29314;SDS011;16320;53.954;9.506;2022-08-25T09:03:32;12.48;;;9.75;;
29314;SDS011;16320;53.954;9.506;2022-08-25T09:06:58;9.25;;;7.78;;
29314;SDS011;16320;53.954;9.506;2022-08-25T09:10:05;10.98;;;7.40;;
29314;SDS011;16320;53.954;9.506;2022-08-25T09:13:13;10.30;;;7.00;;
29314;SDS011;16320;53.954;9.506;2022-08-25T09:23:55;10.85;;;6.45;;
29314;SDS011;16320;53.954;9.506;2022-08-25T09:31:12;9.48;;;6.55;;
29314;SDS011;16320;53.954;9.506;2022-08-25T09:34:32;9.80;;;6.13;;
29314;SDS011;16320;53.954;9.506;2022-08-25T09:37:38;10.18;;;6.88;;
29314;SDS011;16320;53.954;9.506;2022-08-25T09:40:44;6.50;;;5.85;;
29314;SDS011;16320;53.954;9.506;2022-08-25T09:43:52;10.25;;;6.15;;
29314;SDS011;16320;53.954;9.506;2022-08-25T09:50:35;8.25;;;5.55;;
29314;SDS011;16320;53.954;9.506;2022-08-25T09:53:43;5.10;;;4.60;;
29314;SDS011;16320;53.954;9.506;2022-08-25T10:00:59;9.63;;;5.07;;
29314;SDS011;16320;53.954;9.506;2022-08-25T10:07:34;7.25;;;4.60;;
29314;SDS011;16320;53.954;9.506;2022-08-25T10:10:55;7.53;;;4.47;;
29314;SDS011;16320;53.954;9.506;2022-08-25T10:14:04;5.75;;;4.57;;
29314;SDS011;16320;53.954;9.506;2022-08-25T10:17:46;7.65;;;5.38;;
29314;SDS011;16320;53.954;9.506;2022-08-25T10:21:00;10.02;;;5.13;;
29314;SDS011;16320;53.954;9.506;2022-08-25T10:24:22;9.20;;;5.22;;
29314;SDS011;16320;53.954;9.506;2022-08-25T10:27:32;8.48;;;4.28;;
29314;SDS011;16320;53.954;9.506;2022-08-25T10:45:21;9.57;;;4.63;;
29314;SDS011;16320;53.954;9.506;2022-08-25T10:55:17;7.50;;;3.58;;
29314;SDS011;16320;53.954;9.506;2022-08-25T11:05:49;3.70;;;3.33;;
29314;SDS011;16320;53.954;9.506;2022-08-25T11:08:56;6.97;;;3.10;;
29314;SDS011;16320;53.954;9.506;2022-08-25T11:12:18;6.07;;;3.70;;
29314;SDS011;16320;53.954;9.506;2022-08-25T11:15:36;6.90;;;3.83;;
29314;SDS011;16320;53.954;9.506;2022-08-25T11:19:22;8.93;;;3.45;;
29314;SDS011;16320;53.954;9.506;2022-08-25T11:25:56;5.55;;;3.17;;
29314;SDS011;16320;53.954;9.506;2022-08-25T11:29:12;10.30;;;3.58;;
29314;SDS011;16320;53.954;9.506;2022-08-25T11:32:20;11.88;;;3.75;;
29314;SDS011;16320;53.954;9.506;2022-08-25T11:35:41;6.07;;;3.40;;
29314;SDS011;16320;53.954;9.506;2022-08-25T11:53:27;4.28;;;3.53;;
29314;SDS011;16320;53.954;9.506;2022-08-25T12:00:13;4.60;;;3.58;;
29314;SDS011;16320;53.954;9.506;2022-08-25T12:10:17;5.10;;;3.13;;
29314;SDS011;16320;53.954;9.506;2022-08-25T12:13:40;7.15;;;3.20;;
29314;SDS011;16320;53.954;9.506;2022-08-25T12:19:59;6.30;;;3.00;;
29314;SDS011;16320;53.954;9.506;2022-08-25T12:23:04;6.47;;;3.28;;
29314;SDS011;16320;53.954;9.506;2022-08-25T12:26:12;7.63;;;3.10;;
29314;SDS011;16320;53.954;9.506;2022-08-25T12:29:37;5.60;;;3.13;;
29314;SDS011;16320;53.954;9.506;2022-08-25T12:33:07;3.55;;;2.45;;
29314;SDS011;16320;53.954;9.506;2022-08-25T12:36:28;5.00;;;2.70;;
29314;SDS011;16320;53.954;9.506;2022-08-25T12:39:41;6.72;;;3.33;;
29314;SDS011;16320;53.954;9.506;2022-08-25T12:43:08;5.18;;;3.00;;
29314;SDS011;16320;53.954;9.506;2022-08-25T12:49:31;5.95;;;3.38;;
29314;SDS011;16320;53.954;9.506;2022-08-25T12:52:38;3.58;;;2.17;;
29314;SDS011;16320;53.954;9.506;2022-08-25T12:55:45;7.53;;;2.20;;
29314;SDS011;16320;53.954;9.506;2022-08-25T13:02:38;5.85;;;2.88;;
29314;SDS011;16320;53.954;9.506;2022-08-25T13:06:37;4.20;;;2.40;;
29314;SDS011;16320;53.954;9.506;2022-08-25T13:17:04;4.57;;;2.20;;
29314;SDS011;16320;53.954;9.506;2022-08-25T13:23:27;9.38;;;2.55;;
29314;SDS011;16320;53.954;9.506;2022-08-25T13:26:35;3.83;;;3.00;;
29314;SDS011;16320;53.954;9.506;2022-08-25T13:29:52;4.60;;;2.17;;
29314;SDS011;16320;53.954;9.506;2022-08-25T13:33:18;3.15;;;2.35;;
29314;SDS011;16320;53.954;9.506;2022-08-25T13:36:34;3.85;;;2.10;;
29314;SDS011;16320;53.954;9.506;2022-08-25T13:40:15;8.90;;;2.63;;
29314;SDS011;16320;53.954;9.506;2022-08-25T13:43:34;6.43;;;2.38;;
29314;SDS011;16320;53.954;9.506;2022-08-25T13:46:41;4.82;;;2.38;;
29314;SDS011;16320;53.954;9.506;2022-08-25T13:49:48;7.07;;;2.30;;
29314;SDS011;16320;53.954;9.506;2022-08-25T13:52:59;6.57;;;2.10;;
29314;SDS011;16320;53.954;9.506;2022-08-25T13:56:07;4.63;;;2.20;;
29314;SDS011;16320;53.954;9.506;2022-08-25T13:59:25;4.20;;;1.80;;
29314;SDS011;16320;53.954;9.506;2022-08-25T14:02:44;5.03;;;1.90;;
29314;SDS011;16320;53.954;9.506;2022-08-25T14:06:03;5.30;;;2.40;;
29314;SDS011;16320;53.954;9.506;2022-08-25T14:09:17;7.53;;;2.30;;
29314;SDS011;16320;53.954;9.506;2022-08-25T14:15:48;4.05;;;1.70;;
29314;SDS011;16320;53.954;9.506;2022-08-25T14:18:54;8.02;;;2.20;;
29314;SDS011;16320;53.954;9.506;2022-08-25T14:22:02;11.90;;;1.92;;
29314;SDS011;16320;53.954;9.506;2022-08-25T14:25:07;3.65;;;1.65;;
29314;SDS011;16320;53.954;9.506;2022-08-25T14:28:17;5.97;;;1.98;;
29314;SDS011;16320;53.954;9.506;2022-08-25T14:31:27;3.65;;;2.10;;
29314;SDS011;16320;53.954;9.506;2022-08-25T14:34:36;3.67;;;1.65;;
29314;SDS011;16320;53.954;9.506;2022-08-25T14:37:44;4.90;;;2.65;;
29314;SDS011;16320;53.954;9.506;2022-08-25T14:40:49;5.57;;;2.08;;
29314;SDS011;16320;53.954;9.506;2022-08-25T14:43:54;3.70;;;2.10;;
29314;SDS011;16320;53.954;9.506;2022-08-25T14:46:59;5.72;;;2.22;;
29314;SDS011;16320;53.954;9.506;2022-08-25T14:50:08;5.20;;;2.70;;
29314;SDS011;16320;53.954;9.506;2022-08-25T14:53:23;4.47;;;2.13;;
29314;SDS011;16320;53.954;9.506;2022-08-25T14:56:28;2.65;;;1.90;;
29314;SDS011;16320;53.954;9.506;2022-08-25T14:59:35;10.00;;;3.13;;
29314;SDS011;16320;53.954;9.506;2022-08-25T15:02:46;8.02;;;2.42;;
29314;SDS011;16320;53.954;9.506;2022-08-25T15:05:55;3.30;;;2.25;;
29314;SDS011;16320;53.954;9.506;2022-08-25T15:09:01;12.07;;;2.45;;
29314;SDS011;16320;53.954;9.506;2022-08-25T15:12:10;4.28;;;2.08;;
29314;SDS011;16320;53.954;9.506;2022-08-25T15:15:24;7.32;;;2.53;;
29314;SDS011;16320;53.954;9.506;2022-08-25T15:18:31;3.30;;;2.33;;
29314;SDS011;16320;53.954;9.506;2022-08-25T15:21:36;7.10;;;2.58;;
29314;SDS011;16320;53.954;9.506;2022-08-25T15:24:41;5.57;;;2.53;;
29314;SDS011;16320;53.954;9.506;2022-08-25T15:27:47;5.13;;;2.58;;
29314;SDS011;16320;53.954;9.506;2022-08-25T15:30:52;7.60;;;2.50;;
29314;SDS011;16320;53.954;9.506;2022-08-25T15:33:56;10.68;;;3.05;;
29314;SDS011;16320;53.954;9.506;2022-08-25T15:37:20;3.55;;;2.15;;
29314;SDS011;16320;53.954;9.506;2022-08-25T15:40:24;4.75;;;1.92;;
29314;SDS011;16320;53.954;9.506;2022-08-25T15:43:31;4.40;;;2.20;;
29314;SDS011;16320;53.954;9.506;2022-08-25T15:46:36;4.53;;;2.47;;
29314;SDS011;16320;53.954;9.506;2022-08-25T15:49:42;5.40;;;2.13;;
29314;SDS011;16320;53.954;9.506;2022-08-25T15:52:47;4.43;;;2.33;;
29314;SDS011;16320;53.954;9.506;2022-08-25T15:55:53;6.28;;;2.40;;
29314;SDS011;16320;53.954;9.506;2022-08-25T15:59:07;6.22;;;2.67;;
29314;SDS011;16320;53.954;9.506;2022-08-25T16:02:12;4.03;;;2.17;;
29314;SDS011;16320;53.954;9.506;2022-08-25T16:05:17;12.18;;;2.63;;
29314;SDS011;16320;53.954;9.506;2022-08-25T16:08:29;9.48;;;3.00;;
29314;SDS011;16320;53.954;9.506;2022-08-25T16:11:34;8.38;;;2.60;;
29314;SDS011;16320;53.954;9.506;2022-08-25T16:14:41;5.68;;;3.00;;
29314;SDS011;16320;53.954;9.506;2022-08-25T16:17:45;13.98;;;3.35;;
29314;SDS011;16320;53.954;9.506;2022-08-25T16:20:53;8.95;;;3.28;;
29314;SDS011;16320;53.954;9.506;2022-08-25T16:23:59;5.32;;;2.70;;
29314;SDS011;16320;53.954;9.506;2022-08-25T16:27:10;7.80;;;2.92;;
29314;SDS011;16320;53.954;9.506;2022-08-25T16:30:16;6.20;;;2.85;;
29314;SDS011;16320;53.954;9.506;2022-08-25T16:36:35;5.38;;;3.03;;
29314;SDS011;16320;53.954;9.506;2022-08-25T16:39:41;9.60;;;3.13;;
29314;SDS011;16320;53.954;9.506;2022-08-25T16:42:48;14.07;;;3.45;;
29314;SDS011;16320;53.954;9.506;2022-08-25T16:45:57;5.32;;;3.30;;
29314;SDS011;16320;53.954;9.506;2022-08-25T16:49:05;5.57;;;2.90;;
29314;SDS011;16320;53.954;9.506;2022-08-25T16:52:10;7.65;;;3.38;;
29314;SDS011;16320;53.954;9.506;2022-08-25T16:55:33;9.65;;;3.25;;
29314;SDS011;16320;53.954;9.506;2022-08-25T16:58:42;11.60;;;3.70;;
29314;SDS011;16320;53.954;9.506;2022-08-25T17:01:48;5.03;;;3.35;;
29314;SDS011;16320;53.954;9.506;2022-08-25T17:04:56;7.68;;;3.60;;
29314;SDS011;16320;53.954;9.506;2022-08-25T17:08:11;11.02;;;3.47;;
29314;SDS011;16320;53.954;9.506;2022-08-25T17:11:35;10.18;;;4.97;;
29314;SDS011;16320;53.954;9.506;2022-08-25T17:14:52;7.00;;;3.67;;
29314;SDS011;16320;53.954;9.506;2022-08-25T17:17:56;5.32;;;3.42;;
29314;SDS011;16320;53.954;9.506;2022-08-25T17:21:04;12.18;;;4.10;;
29314;SDS011;16320;53.954;9.506;2022-08-25T17:24:12;8.73;;;3.53;;
29314;SDS011;16320;53.954;9.506;2022-08-25T17:27:16;8.25;;;3.55;;
29314;SDS011;16320;53.954;9.506;2022-08-25T17:30:21;6.43;;;3.50;;
29314;SDS011;16320;53.954;9.506;2022-08-25T17:33:28;8.38;;;3.65;;
29314;SDS011;16320;53.954;9.506;2022-08-25T17:36:34;12.27;;;3.92;;
29314;SDS011;16320;53.954;9.506;2022-08-25T17:39:39;8.50;;;3.25;;
29314;SDS011;16320;53.954;9.506;2022-08-25T17:42:43;5.82;;;3.45;;
29314;SDS011;16320;53.954;9.506;2022-08-25T17:45:48;9.75;;;3.70;;
29314;SDS011;16320;53.954;9.506;2022-08-25T17:48:54;8.55;;;3.70;;
29314;SDS011;16320;53.954;9.506;2022-08-25T17:51:59;9.40;;;4.00;;
29314;SDS011;16320;53.954;9.506;2022-08-25T17:55:05;4.97;;;3.70;;
29314;SDS011;16320;53.954;9.506;2022-08-25T17:58:15;9.07;;;3.88;;
29314;SDS011;16320;53.954;9.506;2022-08-25T18:01:21;8.77;;;4.10;;
29314;SDS011;16320;53.954;9.506;2022-08-25T18:04:31;11.07;;;3.55;;
29314;SDS011;16320;53.954;9.506;2022-08-25T18:07:36;17.70;;;4.43;;
29314;SDS011;16320;53.954;9.506;2022-08-25T18:10:40;12.70;;;3.60;;
29314;SDS011;16320;53.954;9.506;2022-08-25T18:13:45;11.70;;;4.13;;
29314;SDS011;16320;53.954;9.506;2022-08-25T18:16:53;7.53;;;4.03;;
29314;SDS011;16320;53.954;9.506;2022-08-25T18:19:58;10.60;;;3.72;;
29314;SDS011;16320;53.954;9.506;2022-08-25T18:23:09;9.85;;;4.32;;
29314;SDS011;16320;53.954;9.506;2022-08-25T18:26:14;11.77;;;4.75;;
29314;SDS011;16320;53.954;9.506;2022-08-25T18:29:19;6.72;;;3.63;;
29314;SDS011;16320;53.954;9.506;2022-08-25T18:32:23;13.02;;;3.85;;
29314;SDS011;16320;53.954;9.506;2022-08-25T18:35:28;6.90;;;3.70;;
29314;SDS011;16320;53.954;9.506;2022-08-25T18:38:34;8.10;;;4.03;;
29314;SDS011;16320;53.954;9.506;2022-08-25T18:42:01;10.70;;;3.75;;
29314;SDS011;16320;53.954;9.506;2022-08-25T18:45:09;8.80;;;3.78;;
29314;SDS011;16320;53.954;9.506;2022-08-25T18:48:16;6.95;;;3.17;;
29314;SDS011;16320;53.954;9.506;2022-08-25T18:51:23;8.77;;;3.88;;
29314;SDS011;16320;53.954;9.506;2022-08-25T18:54:27;9.15;;;4.13;;
29314;SDS011;16320;53.954;9.506;2022-08-25T18:57:33;6.28;;;3.85;;
29314;SDS011;16320;53.954;9.506;2022-08-25T19:00:42;6.90;;;4.15;;
29314;SDS011;16320;53.954;9.506;2022-08-25T19:03:48;8.50;;;3.58;;
29314;SDS011;16320;53.954;9.506;2022-08-25T19:06:53;11.45;;;4.57;;
29314;SDS011;16320;53.954;9.506;2022-08-25T19:09:58;8.98;;;4.28;;
29314;SDS011;16320;53.954;9.506;2022-08-25T19:13:03;8.10;;;4.22;;
29314;SDS011;16320;53.954;9.506;2022-08-25T19:16:12;6.68;;;4.05;;
29314;SDS011;16320;53.954;9.506;2022-08-25T19:19:32;7.72;;;3.88;;
29314;SDS011;16320;53.954;9.506;2022-08-25T19:22:37;8.77;;;3.97;;
29314;SDS011;16320;53.954;9.506;2022-08-25T19:25:44;10.25;;;4.15;;
29314;SDS011;16320;53.954;9.506;2022-08-25T19:28:49;9.15;;;5.20;;
29314;SDS011;16320;53.954;9.506;2022-08-25T19:31:55;7.35;;;4.35;;
29314;SDS011;16320;53.954;9.506;2022-08-25T19:35:05;12.88;;;4.40;;
29314;SDS011;16320;53.954;9.506;2022-08-25T19:38:40;11.50;;;4.50;;
29314;SDS011;16320;53.954;9.506;2022-08-25T19:41:47;10.23;;;4.53;;
29314;SDS011;16320;53.954;9.506;2022-08-25T19:44:52;11.43;;;4.63;;
29314;SDS011;16320;53.954;9.506;2022-08-25T19:47:57;9.77;;;3.72;;
29314;SDS011;16320;53.954;9.506;2022-08-25T19:51:02;8.27;;;4.53;;
29314;SDS011;16320;53.954;9.506;2022-08-25T19:54:08;10.43;;;4.50;;
29314;SDS011;16320;53.954;9.506;2022-08-25T19:57:15;9.50;;;4.78;;
29314;SDS011;16320;53.954;9.506;2022-08-25T20:00:39;8.50;;;4.63;;
29314;SDS011;16320;53.954;9.506;2022-08-25T20:03:44;14.13;;;4.97;;
29314;SDS011;16320;53.954;9.506;2022-08-25T20:06:48;10.93;;;4.35;;
29314;SDS011;16320;53.954;9.506;2022-08-25T20:09:53;10.93;;;4.43;;
29314;SDS011;16320;53.954;9.506;2022-08-25T20:12:59;10.73;;;4.85;;
29314;SDS011;16320;53.954;9.506;2022-08-25T20:16:04;8.68;;;5.03;;
29314;SDS011;16320;53.954;9.506;2022-08-25T20:19:09;8.25;;;4.75;;
29314;SDS011;16320;53.954;9.506;2022-08-25T20:22:14;10.77;;;4.43;;
29314;SDS011;16320;53.954;9.506;2022-08-25T20:25:23;6.28;;;4.63;;
29314;SDS011;16320;53.954;9.506;2022-08-25T20:28:38;8.05;;;5.43;;
29314;SDS011;16320;53.954;9.506;2022-08-25T20:31:45;7.28;;;4.55;;
29314;SDS011;16320;53.954;9.506;2022-08-25T20:34:51;8.50;;;4.65;;
29314;SDS011;16320;53.954;9.506;2022-08-25T20:37:58;8.30;;;5.00;;
29314;SDS011;16320;53.954;9.506;2022-08-25T20:41:07;12.07;;;4.53;;
29314;SDS011;16320;53.954;9.506;2022-08-25T20:44:12;8.70;;;5.13;;
29314;SDS011;16320;53.954;9.506;2022-08-25T20:47:17;10.73;;;5.25;;